sensor_id;sensor_type;location;lat;lon;timestamp;P1;durP1;ratioP1;P2;durP2;ratioP2
49241;SDS011;35079;52.704;13.814;2023-03-01T00:01:00;6.68;;;3.42;;
49241;SDS011;35079;52.704;13.814;2023-03-01T00:03:34;7.25;;;3.72;;
49241;SDS011;35079;52.704;13.814;2023-03-01T00:06:01;6.68;;;3.35;;
49241;SDS011;35079;52.704;13.814;2023-03-01T00:08:27;7.72;;;3.58;;
49241;SDS011;35079;52.704;13.814;2023-03-01T00:13:28;9.55;;;4.40;;
49241;SDS011;35079;52.704;13.814;2023-03-01T00:15:54;7.15;;;3.78;;
49241;SDS011;35079;52.704;13.814;2023-03-01T00:18:19;9.35;;;3.63;;
49241;SDS011;35079;52.704;13.814;2023-03-01T00:20:52;5.97;;;3.50;;
49241;SDS011;35079;52.704;13.814;2023-03-01T00:23:19;7.75;;;3.88;;
49241;SDS011;35079;52.704;13.814;2023-03-01T00:25:46;8.05;;;3.75;;
49241;SDS011;35079;52.704;13.814;2023-03-01T00:28:11;5.68;;;3.53;;
49241;SDS011;35079;52.704;13.814;2023-03-01T00:30:37;6.22;;;3.67;;
49241;SDS011;35079;52.704;13.814;2023-03-01T00:33:02;9.40;;;4.43;;
49241;SDS011;35079;52.704;13.814;2023-03-01T00:35:28;7.65;;;3.90;;
49241;SDS011;35079;52.704;13.814;2023-03-01T00:37:54;7.90;;;3.70;;
49241;SDS011;35079;52.704;13.814;2023-03-01T00:40:26;6.20;;;3.42;;
49241;SDS011;35079;52.704;13.814;2023-03-01T00:42:53;6.00;;;3.97;;
49241;SDS011;35079;52.704;13.814;2023-03-01T00:45:19;6.45;;;3.78;;
49241;SDS011;35079;52.704;13.814;2023-03-01T00:47:44;7.45;;;3.50;;
49241;SDS011;35079;52.704;13.814;2023-03-01T00:50:12;6.47;;;3.92;;
49241;SDS011;35079;52.704;13.814;2023-03-01T00:52:38;7.88;;;3.80;;
49241;SDS011;35079;52.704;13.814;2023-03-01T00:55:04;8.73;;;3.75;;
49241;SDS011;35079;52.704;13.814;2023-03-01T00:57:30;7.60;;;3.63;;
49241;SDS011;35079;52.704;13.814;2023-03-01T00:59:56;7.40;;;4.10;;
49241;SDS011;35079;52.704;13.814;2023-03-01T01:02:22;8.07;;;4.03;;
49241;SDS011;35079;52.704;13.814;2023-03-01T01:04:48;5.78;;;3.30;;
49241;SDS011;35079;52.704;13.814;2023-03-01T01:07:13;7.40;;;3.80;;
49241;SDS011;35079;52.704;13.814;2023-03-01T01:09:40;4.97;;;3.38;;
49241;SDS011;35079;52.704;13.814;2023-03-01T01:12:06;7.18;;;3.70;;
49241;SDS011;35079;52.704;13.814;2023-03-01T01:14:32;7.38;;;3.75;;
49241;SDS011;35079;52.704;13.814;2023-03-01T01:16:58;6.85;;;3.05;;
49241;SDS011;35079;52.704;13.814;2023-03-01T01:19:24;7.00;;;4.18;;
49241;SDS011;35079;52.704;13.814;2023-03-01T01:21:50;6.68;;;3.65;;
49241;SDS011;35079;52.704;13.814;2023-03-01T01:24:16;8.20;;;3.67;;
49241;SDS011;35079;52.704;13.814;2023-03-01T01:26:43;8.20;;;3.80;;
49241;SDS011;35079;52.704;13.814;2023-03-01T01:29:08;5.72;;;3.28;;
49241;SDS011;35079;52.704;13.814;2023-03-01T01:31:35;6.85;;;3.30;;
49241;SDS011;35079;52.704;13.814;2023-03-01T01:34:03;6.03;;;3.33;;
49241;SDS011;35079;52.704;13.814;2023-03-01T01:36:30;5.68;;;2.60;;
49241;SDS011;35079;52.704;13.814;2023-03-01T01:38:56;8.35;;;3.40;;
49241;SDS011;35079;52.704;13.814;2023-03-01T01:41:22;6.35;;;3.30;;
49241;SDS011;35079;52.704;13.814;2023-03-01T01:49:46;4.67;;;2.67;;
49241;SDS011;35079;52.704;13.814;2023-03-01T01:52:26;5.10;;;2.90;;
49241;SDS011;35079;52.704;13.814;2023-03-01T01:55:05;3.63;;;2.20;;
49241;SDS011;35079;52.704;13.814;2023-03-01T01:57:36;5.35;;;2.50;;
49241;SDS011;35079;52.704;13.814;2023-03-01T02:00:15;7.15;;;2.80;;
49241;SDS011;35079;52.704;13.814;2023-03-01T02:02:44;7.53;;;3.15;;
49241;SDS011;35079;52.704;13.814;2023-03-01T02:05:18;3.97;;;2.55;;
49241;SDS011;35079;52.704;13.814;2023-03-01T02:07:56;5.65;;;2.88;;
49241;SDS011;35079;52.704;13.814;2023-03-01T02:10:24;5.65;;;2.55;;
49241;SDS011;35079;52.704;13.814;2023-03-01T02:12:50;9.20;;;2.45;;
49241;SDS011;35079;52.704;13.814;2023-03-01T02:15:17;5.22;;;2.60;;
49241;SDS011;35079;52.704;13.814;2023-03-01T02:17:42;8.77;;;2.72;;
49241;SDS011;35079;52.704;13.814;2023-03-01T02:22:59;8.25;;;3.10;;
49241;SDS011;35079;52.704;13.814;2023-03-01T02:30:38;5.82;;;2.60;;
49241;SDS011;35079;52.704;13.814;2023-03-01T02:33:25;6.43;;;2.88;;
49241;SDS011;35079;52.704;13.814;2023-03-01T02:35:51;7.72;;;3.20;;
49241;SDS011;35079;52.704;13.814;2023-03-01T02:38:19;5.55;;;3.03;;
49241;SDS011;35079;52.704;13.814;2023-03-01T02:40:45;6.00;;;3.40;;
49241;SDS011;35079;52.704;13.814;2023-03-01T02:43:12;5.68;;;3.03;;
49241;SDS011;35079;52.704;13.814;2023-03-01T02:45:42;6.25;;;2.88;;
49241;SDS011;35079;52.704;13.814;2023-03-01T02:48:13;6.03;;;2.85;;
49241;SDS011;35079;52.704;13.814;2023-03-01T02:53:15;7.30;;;3.13;;
49241;SDS011;35079;52.704;13.814;2023-03-01T02:55:47;5.57;;;3.53;;
49241;SDS011;35079;52.704;13.814;2023-03-01T02:58:13;5.32;;;3.22;;
49241;SDS011;35079;52.704;13.814;2023-03-01T03:00:40;7.40;;;3.88;;
49241;SDS011;35079;52.704;13.814;2023-03-01T03:03:13;7.65;;;3.75;;
49241;SDS011;35079;52.704;13.814;2023-03-01T03:05:40;6.22;;;3.20;;
49241;SDS011;35079;52.704;13.814;2023-03-01T03:08:05;8.15;;;3.53;;
49241;SDS011;35079;52.704;13.814;2023-03-01T03:10:38;7.43;;;3.53;;
49241;SDS011;35079;52.704;13.814;2023-03-01T03:13:09;5.60;;;3.05;;
49241;SDS011;35079;52.704;13.814;2023-03-01T03:15:37;7.80;;;3.63;;
49241;SDS011;35079;52.704;13.814;2023-03-01T03:18:05;6.47;;;3.47;;
49241;SDS011;35079;52.704;13.814;2023-03-01T03:20:33;8.80;;;3.63;;
49241;SDS011;35079;52.704;13.814;2023-03-01T03:22:59;7.45;;;3.55;;
49241;SDS011;35079;52.704;13.814;2023-03-01T03:25:25;5.97;;;3.05;;
49241;SDS011;35079;52.704;13.814;2023-03-01T03:27:53;7.45;;;3.80;;
49241;SDS011;35079;52.704;13.814;2023-03-01T03:30:21;7.90;;;3.38;;
49241;SDS011;35079;52.704;13.814;2023-03-01T03:32:49;6.22;;;3.42;;
49241;SDS011;35079;52.704;13.814;2023-03-01T03:35:37;8.02;;;3.72;;
49241;SDS011;35079;52.704;13.814;2023-03-01T03:38:07;8.15;;;3.40;;
49241;SDS011;35079;52.704;13.814;2023-03-01T03:40:41;7.05;;;3.67;;
49241;SDS011;35079;52.704;13.814;2023-03-01T03:43:10;6.28;;;3.88;;
49241;SDS011;35079;52.704;13.814;2023-03-01T03:45:37;7.57;;;3.65;;
49241;SDS011;35079;52.704;13.814;2023-03-01T03:48:04;6.43;;;3.00;;
49241;SDS011;35079;52.704;13.814;2023-03-01T03:50:31;5.40;;;3.17;;
49241;SDS011;35079;52.704;13.814;2023-03-01T03:52:59;7.53;;;3.90;;
49241;SDS011;35079;52.704;13.814;2023-03-01T03:55:26;9.20;;;3.50;;
49241;SDS011;35079;52.704;13.814;2023-03-01T03:57:56;6.55;;;3.35;;
49241;SDS011;35079;52.704;13.814;2023-03-01T04:00:23;5.95;;;3.15;;
49241;SDS011;35079;52.704;13.814;2023-03-01T04:02:49;6.88;;;3.42;;
49241;SDS011;35079;52.704;13.814;2023-03-01T04:05:16;6.60;;;3.60;;
49241;SDS011;35079;52.704;13.814;2023-03-01T04:07:44;8.73;;;4.03;;
49241;SDS011;35079;52.704;13.814;2023-03-01T04:10:11;7.80;;;3.63;;
49241;SDS011;35079;52.704;13.814;2023-03-01T04:12:39;7.43;;;3.40;;
49241;SDS011;35079;52.704;13.814;2023-03-01T04:15:05;6.20;;;3.40;;
49241;SDS011;35079;52.704;13.814;2023-03-01T04:17:38;4.38;;;3.05;;
49241;SDS011;35079;52.704;13.814;2023-03-01T04:20:13;7.03;;;3.05;;
49241;SDS011;35079;52.704;13.814;2023-03-01T04:22:42;7.78;;;4.22;;
49241;SDS011;35079;52.704;13.814;2023-03-01T04:25:08;6.47;;;3.67;;
49241;SDS011;35079;52.704;13.814;2023-03-01T04:27:38;7.57;;;3.80;;
49241;SDS011;35079;52.704;13.814;2023-03-01T04:30:19;9.32;;;4.22;;
49241;SDS011;35079;52.704;13.814;2023-03-01T04:32:44;6.13;;;3.45;;
49241;SDS011;35079;52.704;13.814;2023-03-01T04:35:10;8.18;;;4.07;;
49241;SDS011;35079;52.704;13.814;2023-03-01T04:37:35;5.30;;;3.50;;
49241;SDS011;35079;52.704;13.814;2023-03-01T04:40:02;6.68;;;3.35;;
49241;SDS011;35079;52.704;13.814;2023-03-01T04:42:40;4.55;;;2.83;;
49241;SDS011;35079;52.704;13.814;2023-03-01T04:45:07;6.55;;;3.40;;
49241;SDS011;35079;52.704;13.814;2023-03-01T04:47:38;7.53;;;3.38;;
49241;SDS011;35079;52.704;13.814;2023-03-01T04:50:16;5.95;;;3.22;;
49241;SDS011;35079;52.704;13.814;2023-03-01T04:52:45;7.03;;;3.50;;
49241;SDS011;35079;52.704;13.814;2023-03-01T04:55:11;7.43;;;3.38;;
49241;SDS011;35079;52.704;13.814;2023-03-01T04:57:37;7.82;;;4.00;;
49241;SDS011;35079;52.704;13.814;2023-03-01T05:00:04;6.65;;;3.90;;
49241;SDS011;35079;52.704;13.814;2023-03-01T05:02:58;9.85;;;4.03;;
49241;SDS011;35079;52.704;13.814;2023-03-01T05:07:53;6.70;;;3.80;;
49241;SDS011;35079;52.704;13.814;2023-03-01T05:10:23;9.02;;;3.78;;
49241;SDS011;35079;52.704;13.814;2023-03-01T05:12:50;6.75;;;3.80;;
49241;SDS011;35079;52.704;13.814;2023-03-01T05:15:19;6.85;;;3.78;;
49241;SDS011;35079;52.704;13.814;2023-03-01T05:17:46;8.85;;;3.53;;
49241;SDS011;35079;52.704;13.814;2023-03-01T05:20:13;8.15;;;3.30;;
49241;SDS011;35079;52.704;13.814;2023-03-01T05:22:38;8.45;;;3.90;;
49241;SDS011;35079;52.704;13.814;2023-03-01T05:25:04;6.43;;;3.40;;
49241;SDS011;35079;52.704;13.814;2023-03-01T05:27:32;7.63;;;3.35;;
49241;SDS011;35079;52.704;13.814;2023-03-01T05:29:58;5.85;;;3.10;;
49241;SDS011;35079;52.704;13.814;2023-03-01T05:32:23;7.63;;;3.67;;
49241;SDS011;35079;52.704;13.814;2023-03-01T05:34:49;10.38;;;3.70;;
49241;SDS011;35079;52.704;13.814;2023-03-01T05:37:17;6.43;;;3.38;;
49241;SDS011;35079;52.704;13.814;2023-03-01T05:39:42;7.45;;;3.63;;
49241;SDS011;35079;52.704;13.814;2023-03-01T05:42:09;6.85;;;3.42;;
49241;SDS011;35079;52.704;13.814;2023-03-01T05:44:36;5.03;;;3.08;;
49241;SDS011;35079;52.704;13.814;2023-03-01T05:47:02;8.40;;;3.70;;
49241;SDS011;35079;52.704;13.814;2023-03-01T05:49:27;5.55;;;3.05;;
49241;SDS011;35079;52.704;13.814;2023-03-01T05:51:53;6.68;;;3.30;;
49241;SDS011;35079;52.704;13.814;2023-03-01T05:54:20;5.68;;;2.97;;
49241;SDS011;35079;52.704;13.814;2023-03-01T05:56:46;9.07;;;3.40;;
49241;SDS011;35079;52.704;13.814;2023-03-01T05:59:12;8.48;;;3.50;;
49241;SDS011;35079;52.704;13.814;2023-03-01T06:01:39;6.10;;;3.17;;
49241;SDS011;35079;52.704;13.814;2023-03-01T06:04:05;7.55;;;3.22;;
49241;SDS011;35079;52.704;13.814;2023-03-01T06:06:35;7.05;;;3.13;;
49241;SDS011;35079;52.704;13.814;2023-03-01T06:09:04;7.65;;;4.60;;
49241;SDS011;35079;52.704;13.814;2023-03-01T06:11:33;6.53;;;4.45;;
49241;SDS011;35079;52.704;13.814;2023-03-01T06:13:59;9.60;;;4.50;;
49241;SDS011;35079;52.704;13.814;2023-03-01T06:16:25;13.55;;;4.72;;
49241;SDS011;35079;52.704;13.814;2023-03-01T06:18:50;7.43;;;4.20;;
49241;SDS011;35079;52.704;13.814;2023-03-01T06:21:16;7.20;;;4.00;;
49241;SDS011;35079;52.704;13.814;2023-03-01T06:23:41;10.40;;;5.07;;
49241;SDS011;35079;52.704;13.814;2023-03-01T06:26:07;6.43;;;3.40;;
49241;SDS011;35079;52.704;13.814;2023-03-01T06:28:34;7.10;;;3.65;;
49241;SDS011;35079;52.704;13.814;2023-03-01T06:31:00;8.35;;;3.90;;
49241;SDS011;35079;52.704;13.814;2023-03-01T06:33:26;7.53;;;4.10;;
49241;SDS011;35079;52.704;13.814;2023-03-01T06:35:54;9.02;;;3.70;;
49241;SDS011;35079;52.704;13.814;2023-03-01T06:38:21;7.07;;;3.97;;
49241;SDS011;35079;52.704;13.814;2023-03-01T06:40:51;15.73;;;7.70;;
49241;SDS011;35079;52.704;13.814;2023-03-01T06:43:19;11.77;;;7.30;;
49241;SDS011;35079;52.704;13.814;2023-03-01T06:45:45;9.18;;;4.53;;
49241;SDS011;35079;52.704;13.814;2023-03-01T06:48:10;9.43;;;4.72;;
49241;SDS011;35079;52.704;13.814;2023-03-01T06:50:36;9.48;;;4.97;;
49241;SDS011;35079;52.704;13.814;2023-03-01T06:53:02;9.02;;;4.72;;
49241;SDS011;35079;52.704;13.814;2023-03-01T06:55:28;15.73;;;7.82;;
49241;SDS011;35079;52.704;13.814;2023-03-01T06:57:57;12.15;;;8.10;;
49241;SDS011;35079;52.704;13.814;2023-03-01T07:00:34;11.18;;;6.47;;
49241;SDS011;35079;52.704;13.814;2023-03-01T07:03:00;7.55;;;5.15;;
49241;SDS011;35079;52.704;13.814;2023-03-01T07:05:27;6.35;;;4.70;;
49241;SDS011;35079;52.704;13.814;2023-03-01T07:07:53;6.78;;;4.35;;
49241;SDS011;35079;52.704;13.814;2023-03-01T07:10:20;6.00;;;4.10;;
49241;SDS011;35079;52.704;13.814;2023-03-01T07:12:46;7.07;;;4.07;;
49241;SDS011;35079;52.704;13.814;2023-03-01T07:15:11;6.50;;;4.00;;
49241;SDS011;35079;52.704;13.814;2023-03-01T07:17:37;8.07;;;3.70;;
49241;SDS011;35079;52.704;13.814;2023-03-01T07:20:03;6.05;;;3.65;;
49241;SDS011;35079;52.704;13.814;2023-03-01T07:22:29;5.97;;;3.67;;
49241;SDS011;35079;52.704;13.814;2023-03-01T07:24:54;4.60;;;2.90;;
49241;SDS011;35079;52.704;13.814;2023-03-01T07:27:20;7.28;;;3.28;;
49241;SDS011;35079;52.704;13.814;2023-03-01T07:29:45;5.30;;;3.22;;
49241;SDS011;35079;52.704;13.814;2023-03-01T07:32:11;5.95;;;3.25;;
49241;SDS011;35079;52.704;13.814;2023-03-01T07:34:37;4.97;;;3.10;;
49241;SDS011;35079;52.704;13.814;2023-03-01T07:37:02;5.93;;;2.88;;
49241;SDS011;35079;52.704;13.814;2023-03-01T07:39:28;4.82;;;2.80;;
49241;SDS011;35079;52.704;13.814;2023-03-01T07:41:54;5.30;;;2.72;;
49241;SDS011;35079;52.704;13.814;2023-03-01T07:44:19;3.88;;;2.67;;
49241;SDS011;35079;52.704;13.814;2023-03-01T07:46:45;3.80;;;2.45;;
49241;SDS011;35079;52.704;13.814;2023-03-01T07:49:10;3.45;;;2.70;;
49241;SDS011;35079;52.704;13.814;2023-03-01T07:51:36;5.10;;;3.10;;
49241;SDS011;35079;52.704;13.814;2023-03-01T07:54:02;5.88;;;2.60;;
49241;SDS011;35079;52.704;13.814;2023-03-01T07:56:27;7.45;;;3.13;;
49241;SDS011;35079;52.704;13.814;2023-03-01T07:58:53;8.07;;;4.47;;
49241;SDS011;35079;52.704;13.814;2023-03-01T08:01:19;4.22;;;3.30;;
49241;SDS011;35079;52.704;13.814;2023-03-01T08:03:46;4.22;;;3.60;;
49241;SDS011;35079;52.704;13.814;2023-03-01T08:06:13;6.40;;;4.00;;
49241;SDS011;35079;52.704;13.814;2023-03-01T08:08:42;6.35;;;3.60;;
49241;SDS011;35079;52.704;13.814;2023-03-01T08:11:10;5.65;;;3.15;;
49241;SDS011;35079;52.704;13.814;2023-03-01T08:13:37;9.38;;;3.97;;
49241;SDS011;35079;52.704;13.814;2023-03-01T08:16:03;6.05;;;3.58;;
49241;SDS011;35079;52.704;13.814;2023-03-01T08:18:32;6.88;;;3.63;;
49241;SDS011;35079;52.704;13.814;2023-03-01T08:21:06;6.40;;;3.03;;
49241;SDS011;35079;52.704;13.814;2023-03-01T08:23:39;7.57;;;4.10;;
49241;SDS011;35079;52.704;13.814;2023-03-01T08:26:13;8.05;;;3.65;;
49241;SDS011;35079;52.704;13.814;2023-03-01T08:28:40;8.77;;;5.13;;
49241;SDS011;35079;52.704;13.814;2023-03-01T08:33:50;6.50;;;4.57;;
49241;SDS011;35079;52.704;13.814;2023-03-01T08:36:20;6.70;;;3.78;;
49241;SDS011;35079;52.704;13.814;2023-03-01T08:38:50;5.53;;;4.18;;
49241;SDS011;35079;52.704;13.814;2023-03-01T08:41:16;6.78;;;4.40;;
49241;SDS011;35079;52.704;13.814;2023-03-01T08:43:42;7.97;;;5.00;;
49241;SDS011;35079;52.704;13.814;2023-03-01T08:46:07;9.98;;;6.80;;
49241;SDS011;35079;52.704;13.814;2023-03-01T08:48:33;9.25;;;6.20;;
49241;SDS011;35079;52.704;13.814;2023-03-01T08:51:33;5.13;;;3.92;;
49241;SDS011;35079;52.704;13.814;2023-03-01T08:53:51;4.95;;;3.47;;
49241;SDS011;35079;52.704;13.814;2023-03-01T08:56:17;4.38;;;2.95;;
49241;SDS011;35079;52.704;13.814;2023-03-01T08:58:48;5.95;;;4.30;;
49241;SDS011;35079;52.704;13.814;2023-03-01T09:01:15;4.55;;;3.30;;
49241;SDS011;35079;52.704;13.814;2023-03-01T09:03:43;4.00;;;3.00;;
49241;SDS011;35079;52.704;13.814;2023-03-01T09:06:09;3.38;;;2.67;;
49241;SDS011;35079;52.704;13.814;2023-03-01T09:08:36;4.13;;;2.78;;
49241;SDS011;35079;52.704;13.814;2023-03-01T09:11:03;4.78;;;2.92;;
49241;SDS011;35079;52.704;13.814;2023-03-01T09:13:30;4.03;;;2.60;;
49241;SDS011;35079;52.704;13.814;2023-03-01T09:15:56;2.95;;;2.50;;
49241;SDS011;35079;52.704;13.814;2023-03-01T09:18:23;3.25;;;2.72;;
49241;SDS011;35079;52.704;13.814;2023-03-01T09:20:48;5.68;;;3.10;;
49241;SDS011;35079;52.704;13.814;2023-03-01T09:23:14;5.75;;;2.85;;
49241;SDS011;35079;52.704;13.814;2023-03-01T09:25:40;5.18;;;3.03;;
49241;SDS011;35079;52.704;13.814;2023-03-01T09:28:05;3.63;;;2.80;;
49241;SDS011;35079;52.704;13.814;2023-03-01T09:30:35;4.22;;;2.67;;
49241;SDS011;35079;52.704;13.814;2023-03-01T09:33:01;3.97;;;2.63;;
49241;SDS011;35079;52.704;13.814;2023-03-01T09:35:26;4.45;;;2.33;;
49241;SDS011;35079;52.704;13.814;2023-03-01T09:37:52;5.13;;;2.50;;
49241;SDS011;35079;52.704;13.814;2023-03-01T09:40:20;3.95;;;2.35;;
49241;SDS011;35079;52.704;13.814;2023-03-01T09:43:07;4.80;;;2.63;;
49241;SDS011;35079;52.704;13.814;2023-03-01T09:45:45;4.38;;;2.53;;
49241;SDS011;35079;52.704;13.814;2023-03-01T09:48:21;3.90;;;2.50;;
49241;SDS011;35079;52.704;13.814;2023-03-01T09:50:51;4.50;;;2.75;;
49241;SDS011;35079;52.704;13.814;2023-03-01T09:53:18;4.78;;;2.53;;
49241;SDS011;35079;52.704;13.814;2023-03-01T09:56:52;3.42;;;2.58;;
49241;SDS011;35079;52.704;13.814;2023-03-01T09:58:55;3.17;;;2.78;;
49241;SDS011;35079;52.704;13.814;2023-03-01T10:01:47;4.05;;;2.85;;
49241;SDS011;35079;52.704;13.814;2023-03-01T10:09:40;3.58;;;2.42;;
49241;SDS011;35079;52.704;13.814;2023-03-01T10:12:15;3.88;;;2.58;;
49241;SDS011;35079;52.704;13.814;2023-03-01T10:19:45;3.60;;;2.67;;
49241;SDS011;35079;52.704;13.814;2023-03-01T10:22:15;6.20;;;2.85;;
49241;SDS011;35079;52.704;13.814;2023-03-01T10:24:46;4.15;;;2.65;;
49241;SDS011;35079;52.704;13.814;2023-03-01T10:27:15;2.70;;;2.40;;
49241;SDS011;35079;52.704;13.814;2023-03-01T10:30:36;5.68;;;3.00;;
49241;SDS011;35079;52.704;13.814;2023-03-01T10:32:36;4.32;;;2.55;;
49241;SDS011;35079;52.704;13.814;2023-03-01T10:35:15;4.13;;;3.00;;
49241;SDS011;35079;52.704;13.814;2023-03-01T10:37:46;4.47;;;2.83;;
49241;SDS011;35079;52.704;13.814;2023-03-01T10:40:32;5.03;;;3.45;;
49241;SDS011;35079;52.704;13.814;2023-03-01T10:43:03;4.43;;;2.97;;
49241;SDS011;35079;52.704;13.814;2023-03-01T10:45:42;5.30;;;3.03;;
49241;SDS011;35079;52.704;13.814;2023-03-01T10:50:44;4.05;;;2.72;;
49241;SDS011;35079;52.704;13.814;2023-03-01T10:58:37;5.43;;;3.60;;
49241;SDS011;35079;52.704;13.814;2023-03-01T11:01:49;5.28;;;3.00;;
49241;SDS011;35079;52.704;13.814;2023-03-01T11:06:33;3.60;;;3.00;;
49241;SDS011;35079;52.704;13.814;2023-03-01T11:09:13;3.75;;;2.67;;
49241;SDS011;35079;52.704;13.814;2023-03-01T11:11:39;3.72;;;2.75;;
49241;SDS011;35079;52.704;13.814;2023-03-01T11:14:24;3.58;;;2.60;;
49241;SDS011;35079;52.704;13.814;2023-03-01T11:17:11;5.72;;;3.50;;
49241;SDS011;35079;52.704;13.814;2023-03-01T11:19:41;3.78;;;2.70;;
49241;SDS011;35079;52.704;13.814;2023-03-01T11:22:14;4.20;;;2.92;;
49241;SDS011;35079;52.704;13.814;2023-03-01T11:24:49;5.05;;;3.30;;
49241;SDS011;35079;52.704;13.814;2023-03-01T11:27:18;4.20;;;3.22;;
49241;SDS011;35079;52.704;13.814;2023-03-01T11:29:52;5.15;;;3.22;;
49241;SDS011;35079;52.704;13.814;2023-03-01T11:32:24;3.90;;;2.80;;
49241;SDS011;35079;52.704;13.814;2023-03-01T11:34:57;4.22;;;2.47;;
49241;SDS011;35079;52.704;13.814;2023-03-01T11:40:10;6.30;;;2.80;;
49241;SDS011;35079;52.704;13.814;2023-03-01T11:45:21;4.68;;;2.80;;
49241;SDS011;35079;52.704;13.814;2023-03-01T11:48:02;6.32;;;3.70;;
49241;SDS011;35079;52.704;13.814;2023-03-01T11:50:47;4.45;;;3.40;;
49241;SDS011;35079;52.704;13.814;2023-03-01T11:53:20;4.40;;;2.75;;
49241;SDS011;35079;52.704;13.814;2023-03-01T12:16:12;4.22;;;2.40;;
49241;SDS011;35079;52.704;13.814;2023-03-01T12:30:34;3.72;;;2.42;;
49241;SDS011;35079;52.704;13.814;2023-03-01T12:38:40;3.58;;;2.40;;
49241;SDS011;35079;52.704;13.814;2023-03-01T12:51:31;3.53;;;2.63;;
49241;SDS011;35079;52.704;13.814;2023-03-01T12:53:59;3.85;;;2.40;;
49241;SDS011;35079;52.704;13.814;2023-03-01T12:56:31;3.95;;;2.85;;
49241;SDS011;35079;52.704;13.814;2023-03-01T13:01:57;4.30;;;3.05;;
49241;SDS011;35079;52.704;13.814;2023-03-01T13:04:46;2.97;;;2.50;;
49241;SDS011;35079;52.704;13.814;2023-03-01T13:10:27;3.88;;;2.60;;
49241;SDS011;35079;52.704;13.814;2023-03-01T13:13:23;5.30;;;2.72;;
49241;SDS011;35079;52.704;13.814;2023-03-01T13:15:50;5.10;;;2.72;;
49241;SDS011;35079;52.704;13.814;2023-03-01T13:28:46;5.60;;;2.70;;
49241;SDS011;35079;52.704;13.814;2023-03-01T13:33:42;5.68;;;2.95;;
49241;SDS011;35079;52.704;13.814;2023-03-01T13:36:10;4.10;;;2.60;;
49241;SDS011;35079;52.704;13.814;2023-03-01T13:46:42;5.80;;;3.33;;
49241;SDS011;35079;52.704;13.814;2023-03-01T13:49:09;6.47;;;3.45;;
49241;SDS011;35079;52.704;13.814;2023-03-01T13:51:39;7.97;;;3.58;;
49241;SDS011;35079;52.704;13.814;2023-03-01T13:54:05;5.43;;;3.42;;
49241;SDS011;35079;52.704;13.814;2023-03-01T13:56:36;7.35;;;4.40;;
49241;SDS011;35079;52.704;13.814;2023-03-01T13:59:24;4.85;;;3.47;;
49241;SDS011;35079;52.704;13.814;2023-03-01T14:01:55;6.13;;;3.20;;
49241;SDS011;35079;52.704;13.814;2023-03-01T14:04:30;4.15;;;2.80;;
49241;SDS011;35079;52.704;13.814;2023-03-01T14:09:54;5.38;;;3.00;;
49241;SDS011;35079;52.704;13.814;2023-03-01T14:20:48;4.85;;;3.13;;
49241;SDS011;35079;52.704;13.814;2023-03-01T14:23:18;5.43;;;3.28;;
49241;SDS011;35079;52.704;13.814;2023-03-01T14:25:52;4.75;;;3.30;;
49241;SDS011;35079;52.704;13.814;2023-03-01T14:28:24;5.88;;;3.45;;
49241;SDS011;35079;52.704;13.814;2023-03-01T14:30:59;6.55;;;3.80;;
49241;SDS011;35079;52.704;13.814;2023-03-01T14:33:33;4.63;;;3.45;;
49241;SDS011;35079;52.704;13.814;2023-03-01T14:36:09;6.63;;;3.80;;
49241;SDS011;35079;52.704;13.814;2023-03-01T14:41:10;4.93;;;3.30;;
49241;SDS011;35079;52.704;13.814;2023-03-01T14:43:49;7.90;;;4.00;;
49241;SDS011;35079;52.704;13.814;2023-03-01T14:46:56;5.25;;;3.63;;
49241;SDS011;35079;52.704;13.814;2023-03-01T14:49:22;4.13;;;3.03;;
49241;SDS011;35079;52.704;13.814;2023-03-01T14:57:05;6.03;;;3.22;;
49241;SDS011;35079;52.704;13.814;2023-03-01T14:59:32;5.57;;;3.50;;
49241;SDS011;35079;52.704;13.814;2023-03-01T15:01:59;7.53;;;4.10;;
49241;SDS011;35079;52.704;13.814;2023-03-01T15:04:26;6.05;;;3.30;;
49241;SDS011;35079;52.704;13.814;2023-03-01T15:06:53;21.90;;;11.52;;
49241;SDS011;35079;52.704;13.814;2023-03-01T15:09:20;13.90;;;7.45;;
49241;SDS011;35079;52.704;13.814;2023-03-01T15:11:47;21.70;;;9.30;;
49241;SDS011;35079;52.704;13.814;2023-03-01T15:17:33;8.05;;;4.15;;
49241;SDS011;35079;52.704;13.814;2023-03-01T15:20:02;6.28;;;3.50;;
49241;SDS011;35079;52.704;13.814;2023-03-01T15:22:32;7.20;;;3.53;;
49241;SDS011;35079;52.704;13.814;2023-03-01T15:24:58;5.47;;;3.22;;
49241;SDS011;35079;52.704;13.814;2023-03-01T15:27:24;6.82;;;3.50;;
49241;SDS011;35079;52.704;13.814;2023-03-01T15:29:56;6.20;;;3.65;;
49241;SDS011;35079;52.704;13.814;2023-03-01T15:32:31;8.38;;;3.50;;
49241;SDS011;35079;52.704;13.814;2023-03-01T15:34:59;11.77;;;6.43;;
49241;SDS011;35079;52.704;13.814;2023-03-01T15:40:00;8.05;;;4.20;;
49241;SDS011;35079;52.704;13.814;2023-03-01T15:47:54;8.68;;;3.88;;
49241;SDS011;35079;52.704;13.814;2023-03-01T15:50:36;7.72;;;4.03;;
49241;SDS011;35079;52.704;13.814;2023-03-01T15:53:05;11.00;;;5.18;;
49241;SDS011;35079;52.704;13.814;2023-03-01T15:55:36;15.25;;;6.75;;
49241;SDS011;35079;52.704;13.814;2023-03-01T16:00:27;19.23;;;7.97;;
49241;SDS011;35079;52.704;13.814;2023-03-01T16:02:54;11.20;;;6.05;;
49241;SDS011;35079;52.704;13.814;2023-03-01T16:05:24;6.90;;;3.78;;
49241;SDS011;35079;52.704;13.814;2023-03-01T16:07:51;6.05;;;3.53;;
49241;SDS011;35079;52.704;13.814;2023-03-01T16:13:13;6.10;;;3.22;;
49241;SDS011;35079;52.704;13.814;2023-03-01T16:15:39;3.92;;;2.55;;
49241;SDS011;35079;52.704;13.814;2023-03-01T16:18:05;4.47;;;3.05;;
49241;SDS011;35079;52.704;13.814;2023-03-01T16:20:33;5.32;;;2.75;;
49241;SDS011;35079;52.704;13.814;2023-03-01T16:22:59;4.43;;;2.65;;
49241;SDS011;35079;52.704;13.814;2023-03-01T16:25:26;6.05;;;3.10;;
49241;SDS011;35079;52.704;13.814;2023-03-01T16:27:52;5.28;;;3.00;;
49241;SDS011;35079;52.704;13.814;2023-03-01T16:30:19;5.18;;;3.03;;
49241;SDS011;35079;52.704;13.814;2023-03-01T16:32:46;7.65;;;2.95;;
49241;SDS011;35079;52.704;13.814;2023-03-01T16:35:14;4.95;;;2.70;;
49241;SDS011;35079;52.704;13.814;2023-03-01T16:37:42;4.55;;;2.88;;
49241;SDS011;35079;52.704;13.814;2023-03-01T16:40:18;4.18;;;2.70;;
49241;SDS011;35079;52.704;13.814;2023-03-01T16:42:46;4.00;;;2.60;;
49241;SDS011;35079;52.704;13.814;2023-03-01T16:45:16;5.80;;;3.10;;
49241;SDS011;35079;52.704;13.814;2023-03-01T16:47:42;5.35;;;2.78;;
49241;SDS011;35079;52.704;13.814;2023-03-01T16:50:08;6.03;;;2.75;;
49241;SDS011;35079;52.704;13.814;2023-03-01T16:52:34;5.60;;;2.65;;
49241;SDS011;35079;52.704;13.814;2023-03-01T16:54:59;5.00;;;2.47;;
49241;SDS011;35079;52.704;13.814;2023-03-01T16:57:26;6.20;;;2.85;;
49241;SDS011;35079;52.704;13.814;2023-03-01T16:59:52;5.75;;;2.67;;
49241;SDS011;35079;52.704;13.814;2023-03-01T17:02:20;4.32;;;2.38;;
49241;SDS011;35079;52.704;13.814;2023-03-01T17:04:52;9.07;;;3.30;;
49241;SDS011;35079;52.704;13.814;2023-03-01T17:07:19;5.30;;;2.90;;
49241;SDS011;35079;52.704;13.814;2023-03-01T17:09:47;5.90;;;3.03;;
49241;SDS011;35079;52.704;13.814;2023-03-01T17:12:13;6.32;;;2.90;;
49241;SDS011;35079;52.704;13.814;2023-03-01T17:14:41;5.15;;;2.85;;
49241;SDS011;35079;52.704;13.814;2023-03-01T17:17:08;4.68;;;2.72;;
49241;SDS011;35079;52.704;13.814;2023-03-01T17:19:34;6.10;;;2.95;;
49241;SDS011;35079;52.704;13.814;2023-03-01T17:22:03;3.88;;;2.67;;
49241;SDS011;35079;52.704;13.814;2023-03-01T17:24:31;4.10;;;2.63;;
49241;SDS011;35079;52.704;13.814;2023-03-01T17:26:58;4.40;;;2.83;;